Colerain, OH (43916)

3:59 AM EST on March 01, 2015 (GMT -0500)
Crawford Heights | Change Station
CLOSE
Current Station
Personal Weather Station
Location: Martins Ferry, OH
Elevation: 1109 ft
Nearby Weather Stations
Active Advisory: Winter Weather Advisory Active Notice: Record Report

Elev 1109 ft 40.09 °N, 80.75 °W | Updated 3 minutes ago

Snow
Snow
20.5 °F
Feels Like 15 °F
N
3.7
Wind Variable Wind from SE

Today
High -- | Low -- °F
--% Chance of Precip.
Yesterday
High -- | Low -- °F
Precip. -- in
6:56 AM 6:14 PM
Waxing Gibbous, 83% visible
Pressure 30.49 in
Visibility 1.0 miles
Clouds
Windchill 15 °F
Dew Point 19 °F
Humidity 94%
Rainfall 0.00 in
Snow Depth Not available.
UV Not available.
Pollen .50 out of 12
Air Quality Not available.
Flu Activity Not available.
METAR KHLG 010853Z AUTO 10003KT 1SM R03/P6000FT -SN BR VV020 M06/M08 A3043 RMK AO2 SLP325 P0002 60005 T10611078 58018

More Conditions Fewer Conditions

Pressure 30.49 in
Visibility 1.0 miles
Clouds
Windchill 15 °F
Dew Point 19 °F
Humidity 94%
Rainfall 0.00 in
Snow Depth Not available.
UV Not available.
Pollen .50 out of 12
Air Quality Not available.
Flu Activity Not available.
METAR KHLG 010853Z AUTO 10003KT 1SM R03/P6000FT -SN BR VV020 M06/M08 A3043 RMK AO2 SLP325 P0002 60005 T10611078 58018

More Conditions Fewer Conditions

10-Day Weather Forecast

Almanac

Astronomy

Mar. 01, 2015 Rise Set
Actual Time
Civil Twilight
Nautical Twilight
Astronomical Twilight
Moon
Length of Visible Light
Length of Day
Tomorrow will be .
, % of the Moon is Illuminated

Today's Extremes

State Highs State Lows

Community

WunderPhotos

Upload Photos

1,801,350 photos uploaded!

WunderBlogs® & News

Nearby

Air Quality

  Air Quality AQ Index Pollutant
Not available.

Snow Depth

Station Depth Elevation

Earthquake Activity

City Distance Mag. Time & Date
Minimum magnitude displayed is 2.5.

Coastal Water Temperatures

Place Temperature

Nearby Weather Stations

Winter Weather Advisory
Statement as of 9:51 PM EST on February 28, 2015

... Winter Weather Advisory remains in effect from 4 am Sunday to
7 am EST Monday...

* snow accumulation... 2 to 6 inches.

* Snow beginning... late tonight.

* Period of most intense snow... Sunday morning. Rain may mix on
Sunday afternoon... before changing back to snow Sunday night.

* Snow ending... snow will taper off Sunday night.

* Impacts..hazardous travel conditions are expected due to snow
accumulation.

Precautionary/preparedness actions...

A Winter Weather Advisory for snow means that snowfall will cause
travel difficulties. Be prepared for snow covered roads. Report
snow accumulation to the National Weather Service by calling
412-262-1988... posting to the NWS Pittsburgh facebook Page... or
using twitter @nwspittsburgh.